createdAt,value
2023-02-11T02:13:46.590Z,33.22
2023-02-11T02:16:00.458Z,30.80
2023-02-11T02:18:39.154Z,31.52
2023-02-11T02:21:03.833Z,30.67
2023-02-11T02:23:25.054Z,32.28
2023-02-11T02:25:50.441Z,33.67
2023-02-11T02:27:55.955Z,31.42
2023-02-11T02:30:10.868Z,32.00
2023-02-11T02:32:31.427Z,32.00
2023-02-11T02:34:48.785Z,31.38
2023-02-11T02:37:34.996Z,35.30
2023-02-11T02:39:37.625Z,35.20
2023-02-11T02:41:40.746Z,37.17
2023-02-11T02:43:46.226Z,35.53
2023-02-11T02:45:48.478Z,34.50
2023-02-11T02:47:50.650Z,32.88
2023-02-11T02:49:52.512Z,32.22
2023-02-11T02:54:08.162Z,28.67
2023-02-11T02:56:38.686Z,28.98
2023-02-11T02:59:03.788Z,32.33
2023-02-11T03:01:11.598Z,34.38
2023-02-11T03:03:28.863Z,34.97
2023-02-11T03:05:54.276Z,34.75
2023-02-11T03:08:23.474Z,35.45
2023-02-11T03:10:30.485Z,35.72
2023-02-11T03:12:35.022Z,39.75
2023-02-11T03:14:38.919Z,36.38
2023-02-11T03:16:43.189Z,36.17
2023-02-11T03:19:01.903Z,40.45
2023-02-11T03:21:07.290Z,34.63
2023-02-11T03:23:21.345Z,38.80
2023-02-11T03:25:30.220Z,38.67
2023-02-11T03:27:41.847Z,39.13
2023-02-11T03:29:55.594Z,39.33
2023-02-11T03:32:06.446Z,36.08
2023-02-11T03:34:14.508Z,38.50
2023-02-11T03:36:26.579Z,35.70
2023-02-11T03:40:39.007Z,32.80
2023-02-11T03:42:49.413Z,32.58
2023-02-11T03:44:57.326Z,35.10
2023-02-11T03:47:01.119Z,39.53
2023-02-11T03:49:12.397Z,38.28
2023-02-11T03:51:15.076Z,36.63
2023-02-11T03:53:19.049Z,35.78
2023-02-11T03:55:23.270Z,41.50
2023-02-11T03:57:25.118Z,36.95
2023-02-11T04:01:29.071Z,45.22
2023-02-11T04:03:33.076Z,42.75
2023-02-11T04:05:35.233Z,41.30
2023-02-11T04:07:37.096Z,38.40
2023-02-11T04:11:40.807Z,34.55
2023-02-11T04:15:44.517Z,42.13
2023-02-11T04:17:47.224Z,45.88
2023-02-11T04:19:49.082Z,42.40
2023-02-11T04:23:52.678Z,45.65
2023-02-11T04:27:56.509Z,43.95
2023-02-11T04:29:58.410Z,44.85
2023-02-11T04:34:02.075Z,47.50
2023-02-11T04:38:05.687Z,53.63
2023-02-11T04:42:09.617Z,57.95
2023-02-11T04:46:13.293Z,69.00
2023-02-11T04:48:15.225Z,65.82
2023-02-11T04:52:19.047Z,58.17
2023-02-11T04:54:22.052Z,45.28
2023-02-11T04:56:23.877Z,40.92
2023-02-11T05:00:27.481Z,39.78
2023-02-11T05:04:31.179Z,36.25
2023-02-11T05:06:33.159Z,43.33
2023-02-11T05:08:34.993Z,39.10
2023-02-11T05:12:38.702Z,39.53
2023-02-11T05:16:42.424Z,39.92
2023-02-11T05:20:46.836Z,38.35
2023-02-11T05:24:50.781Z,41.85
2023-02-11T05:26:52.630Z,43.40
2023-02-11T05:30:56.666Z,39.03
2023-02-11T05:32:58.557Z,42.17
2023-02-11T05:37:02.348Z,41.25
2023-02-11T05:39:04.358Z,41.25
2023-02-11T05:43:08.128Z,43.95
2023-02-11T05:47:11.820Z,41.03
2023-02-11T05:51:15.410Z,40.47
2023-02-11T05:55:19.492Z,40.35
2023-02-11T05:59:23.106Z,39.85
2023-02-11T06:01:24.997Z,39.90
2023-02-11T06:03:26.904Z,43.30
2023-02-11T06:07:30.562Z,45.22
2023-02-11T06:11:34.151Z,48.58
2023-02-11T06:15:38.309Z,48.03
2023-02-11T06:19:41.998Z,55.22
2023-02-11T06:21:44.696Z,59.63
2023-02-11T06:23:46.630Z,52.40
2023-02-11T06:27:50.834Z,49.58
2023-02-11T06:31:54.958Z,56.50
2023-02-11T06:33:56.911Z,61.40
2023-02-11T06:35:58.764Z,57.55
2023-02-11T06:38:00.813Z,61.38
2023-02-11T06:40:02.720Z,55.83
2023-02-11T06:44:09.818Z,55.38
2023-02-11T06:48:14.026Z,56.63
2023-02-11T06:50:16.004Z,49.47
2023-02-11T06:54:19.564Z,50.80
2023-02-11T06:56:24.510Z,60.00
2023-02-11T06:58:26.339Z,64.03
2023-02-11T07:00:29.152Z,62.28
2023-02-11T07:02:31.185Z,60.03
2023-02-11T07:04:33.136Z,60.10
2023-02-11T07:06:35.066Z,64.05
2023-02-11T07:08:37.881Z,64.63
2023-02-11T07:10:39.785Z,62.60
2023-02-11T07:12:41.679Z,60.50
2023-02-11T07:14:43.551Z,57.13
2023-02-11T07:16:45.393Z,56.33
2023-02-11T07:18:48.476Z,56.38
2023-02-11T07:20:50.391Z,52.58
2023-02-11T07:24:54.054Z,52.30
2023-02-11T07:28:57.628Z,54.20
2023-02-11T07:30:59.545Z,52.95
2023-02-11T07:33:01.445Z,53.40
2023-02-11T07:35:04.034Z,46.20
2023-02-11T07:37:05.981Z,43.55
2023-02-11T07:39:07.839Z,47.20
2023-02-11T07:41:12.461Z,41.90
2023-02-11T07:43:14.339Z,38.63
2023-02-11T07:45:16.436Z,35.15
2023-02-11T07:47:18.379Z,34.83
2023-02-11T07:51:24.664Z,34.03
2023-02-11T07:53:26.465Z,34.03
2023-02-11T07:55:28.346Z,39.22
2023-02-11T07:57:30.333Z,36.28
2023-02-11T08:01:34.082Z,35.08
2023-02-11T08:07:40.711Z,33.53
2023-02-11T08:11:44.957Z,33.22
2023-02-11T08:13:47.132Z,41.55
2023-02-11T08:15:49.434Z,35.47
2023-02-11T08:17:51.464Z,38.15
2023-02-11T08:19:53.338Z,33.25
2023-02-11T08:21:59.811Z,35.03
2023-02-11T08:24:03.206Z,31.02
2023-02-11T08:26:10.398Z,31.33
2023-02-11T08:28:12.367Z,32.10
2023-02-11T08:32:16.360Z,28.98
2023-02-11T08:34:19.208Z,29.80
2023-02-11T08:36:24.014Z,27.05
2023-02-11T08:38:26.021Z,25.23
2023-02-11T08:42:29.781Z,28.02
2023-02-11T08:44:31.654Z,29.92
2023-02-11T08:46:33.556Z,29.17
2023-02-11T08:48:35.537Z,28.17
2023-02-11T08:52:40.945Z,26.77
2023-02-11T08:54:43.197Z,27.50
2023-02-11T08:56:45.673Z,28.08
2023-02-11T08:58:48.042Z,28.77
2023-02-11T09:00:50.458Z,28.08
2023-02-11T09:02:52.612Z,30.95
2023-02-11T09:04:54.503Z,27.38
2023-02-11T09:06:56.847Z,30.45
2023-02-11T09:08:58.830Z,29.55
2023-02-11T09:13:02.602Z,27.02
2023-02-11T09:17:06.462Z,26.52
2023-02-11T09:21:12.769Z,27.67
2023-02-11T09:23:16.462Z,30.40
2023-02-11T09:25:20.250Z,28.40
2023-02-11T09:29:23.864Z,24.77
2023-02-11T09:31:28.100Z,26.92
2023-02-11T09:33:30.066Z,26.42
2023-02-11T09:35:33.484Z,28.35
2023-02-11T09:37:37.349Z,28.75
2023-02-11T09:39:39.399Z,31.55
2023-02-11T09:41:41.262Z,29.75
2023-02-11T09:43:48.060Z,27.73
2023-02-11T09:45:51.444Z,30.35
2023-02-11T09:47:59.291Z,29.55
2023-02-11T09:50:11.043Z,30.52
2023-02-11T09:52:18.880Z,31.13
2023-02-11T09:54:58.209Z,27.77
2023-02-11T09:57:00.148Z,24.15
2023-02-11T09:59:02.351Z,27.48
2023-02-11T10:01:21.841Z,26.73
2023-02-11T10:03:59.264Z,30.90
2023-02-11T10:06:30.573Z,31.95
2023-02-11T10:08:54.299Z,28.17
2023-02-11T10:11:15.566Z,23.45
2023-02-11T10:13:53.189Z,31.73
2023-02-11T10:16:24.955Z,28.02
2023-02-11T10:18:26.758Z,27.63
2023-02-11T10:20:54.250Z,27.45
2023-02-11T10:23:01.305Z,29.17
2023-02-11T10:25:24.748Z,30.40
2023-02-11T10:27:35.504Z,27.27
2023-02-11T10:29:43.850Z,28.55
2023-02-11T10:31:47.454Z,31.08
2023-02-11T10:34:07.181Z,28.67
2023-02-11T10:36:12.256Z,27.50
2023-02-11T10:38:14.341Z,32.83
2023-02-11T10:40:23.014Z,28.92
2023-02-11T10:42:26.009Z,30.67
2023-02-11T10:44:39.366Z,32.38
2023-02-11T10:46:43.901Z,28.80
2023-02-11T10:48:52.794Z,30.52
2023-02-11T10:51:22.721Z,25.60
2023-02-11T10:53:24.682Z,25.88
2023-02-11T10:55:30.933Z,26.25
2023-02-11T10:57:46.165Z,26.80
2023-02-11T10:59:49.483Z,24.00
2023-02-11T11:01:59.131Z,25.48
2023-02-11T11:04:01.205Z,23.17
2023-02-11T11:08:09.167Z,21.95
2023-02-11T11:10:33.878Z,25.88
2023-02-11T11:12:45.063Z,24.58
2023-02-11T11:14:55.878Z,27.05
2023-02-11T11:16:57.737Z,28.40
2023-02-11T11:19:08.533Z,25.15
2023-02-11T11:21:23.663Z,27.52
2023-02-11T11:23:27.209Z,25.13
2023-02-11T11:25:30.509Z,25.58
2023-02-11T11:27:33.206Z,25.90
2023-02-11T11:29:45.160Z,26.33
2023-02-11T11:32:01.350Z,26.67
2023-02-11T11:34:26.465Z,21.90
2023-02-11T11:36:38.242Z,25.38
2023-02-11T11:38:56.462Z,25.85
2023-02-11T11:41:34.584Z,26.90
2023-02-11T11:43:37.687Z,23.73
2023-02-11T11:45:40.172Z,23.65
2023-02-11T11:47:53.087Z,23.50
2023-02-11T11:50:21.160Z,24.92
2023-02-11T11:52:28.899Z,20.27
2023-02-11T11:54:34.042Z,22.35
2023-02-11T11:56:49.727Z,24.77
2023-02-11T11:58:51.818Z,24.10
2023-02-11T12:03:19.963Z,20.98
2023-02-11T12:05:45.076Z,19.08
2023-02-11T12:08:21.977Z,22.73
2023-02-11T12:10:51.194Z,21.05
2023-02-11T12:13:09.781Z,20.50
2023-02-11T12:15:30.049Z,28.48
2023-02-11T12:17:43.532Z,27.23
2023-02-11T12:19:56.467Z,25.88
2023-02-11T12:22:10.890Z,25.08
2023-02-11T12:24:52.982Z,28.80
2023-02-11T12:27:09.893Z,28.10
2023-02-11T12:29:21.574Z,27.25
2023-02-11T12:31:56.723Z,25.42
2023-02-11T12:34:26.591Z,26.30
2023-02-11T12:36:45.458Z,26.40
2023-02-11T12:39:01.821Z,19.10
2023-02-11T12:42:05.131Z,26.33
2023-02-11T12:46:58.693Z,24.50
2023-02-11T12:49:35.890Z,25.75
2023-02-11T12:51:58.427Z,25.42
2023-02-11T12:54:21.334Z,16.42
2023-02-11T13:26:24.610Z,23.30
2023-02-11T13:28:38.851Z,20.45
2023-02-11T13:30:47.109Z,21.40
2023-02-11T13:32:54.855Z,22.92
2023-02-11T13:34:58.822Z,23.38
2023-02-11T13:37:00.782Z,23.20
2023-02-11T13:39:06.099Z,22.92
2023-02-11T13:41:27.831Z,22.20
2023-02-11T13:43:35.059Z,20.70
2023-02-11T13:45:43.971Z,21.15
2023-02-11T13:47:47.856Z,19.90
2023-02-11T13:49:54.758Z,19.35
2023-02-11T13:51:58.926Z,19.38
2023-02-11T13:54:01.566Z,20.13
2023-02-11T13:56:23.183Z,20.17
2023-02-11T13:58:27.933Z,19.53
2023-02-11T14:00:35.851Z,20.10
2023-02-11T16:14:29.701Z,23.58
2023-02-11T16:16:34.517Z,21.27
2023-02-11T16:19:02.133Z,23.27
2023-02-11T16:21:15.911Z,21.80
2023-02-11T16:23:28.517Z,22.55
2023-02-11T16:25:30.766Z,21.17
2023-02-11T16:27:40.904Z,21.65
2023-02-11T16:29:47.582Z,21.65
2023-02-11T16:31:50.436Z,21.45
2023-02-11T16:33:52.605Z,23.85
2023-02-11T16:35:54.998Z,23.23
2023-02-11T16:37:57.120Z,22.17
2023-02-11T16:39:59.197Z,22.63
2023-02-11T16:46:05.874Z,22.83
2023-02-11T16:48:09.535Z,21.48
2023-02-11T16:50:32.777Z,21.95
2023-02-11T16:52:35.981Z,21.27
2023-02-11T16:54:38.138Z,23.80
2023-02-11T16:56:40.240Z,24.20
2023-02-11T17:00:44.985Z,22.02
2023-02-11T17:02:46.999Z,22.77
2023-02-11T17:06:51.686Z,23.27
2023-02-11T17:08:53.636Z,22.85
2023-02-11T17:10:55.567Z,25.48
2023-02-11T17:12:57.606Z,24.48
2023-02-11T17:17:02.079Z,23.67
2023-02-11T17:19:04.196Z,21.83
2023-02-11T17:21:07.319Z,25.20
2023-02-11T17:23:09.755Z,24.08
2023-02-11T17:25:12.129Z,23.75
2023-02-11T17:27:14.406Z,25.23
2023-02-11T17:29:19.391Z,24.75
2023-02-11T17:31:23.367Z,24.35
2023-02-11T17:33:25.257Z,24.95
2023-02-11T17:35:27.209Z,26.30
2023-02-11T17:37:33.026Z,25.02
2023-02-11T17:39:39.776Z,28.67
2023-02-11T17:41:42.217Z,25.60
2023-02-11T17:43:44.142Z,26.98
2023-02-11T17:45:46.260Z,24.92
2023-02-11T17:47:49.305Z,23.77
2023-02-11T17:49:51.192Z,27.90
2023-02-11T17:51:53.040Z,26.88
2023-02-11T17:54:02.681Z,25.15
2023-02-11T17:56:07.309Z,27.15
2023-02-11T17:58:09.758Z,25.70
2023-02-11T18:00:13.563Z,26.17
2023-02-11T18:02:17.690Z,26.48
2023-02-11T18:04:22.547Z,23.35
2023-02-11T18:06:25.081Z,25.38
2023-02-11T18:08:27.496Z,25.67
2023-02-11T18:10:29.681Z,25.33
2023-02-11T18:12:32.189Z,23.52
2023-02-11T18:14:34.640Z,27.95
2023-02-11T18:16:43.479Z,28.88
2023-02-11T18:18:46.637Z,28.15
2023-02-11T18:21:00.426Z,24.58
2023-02-11T18:23:03.578Z,27.40
2023-02-11T18:25:08.239Z,24.63
2023-02-11T18:27:17.367Z,24.65
2023-02-11T18:29:20.057Z,25.38
2023-02-11T18:31:26.679Z,24.65
2023-02-11T18:33:30.131Z,21.05
2023-02-11T18:35:32.315Z,22.02
2023-02-11T18:37:34.833Z,26.13
2023-02-11T18:39:37.020Z,23.33
2023-02-11T18:41:44.388Z,24.27
2023-02-11T18:43:48.761Z,22.70
2023-02-11T18:45:55.901Z,23.42
2023-02-11T18:48:01.843Z,25.60
2023-02-11T18:50:10.384Z,25.88
2023-02-11T18:52:12.951Z,18.88
2023-02-11T18:54:14.960Z,24.80
2023-02-11T18:58:24.006Z,21.67
2023-02-11T19:00:31.511Z,21.48
2023-02-11T19:05:20.654Z,20.52
2023-02-11T19:07:32.024Z,20.48
2023-02-11T19:09:34.060Z,22.10
2023-02-11T19:14:10.300Z,23.13
2023-02-11T19:16:14.248Z,17.05
2023-02-11T19:18:16.805Z,24.38
2023-02-11T19:20:19.227Z,23.83
2023-02-11T19:22:21.396Z,24.00
2023-02-11T19:24:23.901Z,25.65
2023-02-11T19:26:27.212Z,23.10
2023-02-11T19:28:30.835Z,25.95
2023-02-11T19:30:32.902Z,24.23
2023-02-11T19:34:41.514Z,21.13
2023-02-11T19:36:44.209Z,24.45
2023-02-11T19:38:46.370Z,20.33
2023-02-11T19:40:56.210Z,23.25
2023-02-11T19:42:58.263Z,23.50
2023-02-11T19:45:00.399Z,28.08
2023-02-11T19:47:02.413Z,25.73
2023-02-11T19:51:13.096Z,21.20
2023-02-11T19:53:15.447Z,21.52
2023-02-11T19:55:17.473Z,24.45
2023-02-11T19:59:21.661Z,22.27
2023-02-11T20:01:25.050Z,20.60
2023-02-11T20:03:27.165Z,21.98
2023-02-11T20:05:29.242Z,20.98
